Return to the overview of this dataset or to the list of all FOR816 datasets.


Value filter for entity: Microclimate(id: 446) of dataset: Forest microclimate ECSF tree T117b midstorey (z3) (dsid: 663)

Select attribute to work with:



Order by

Aggregate by date/time

on attribute:

Draw graph of subset

    x     y1     y2  
     
Ta_2m (air temperature in 2m)
Huma_2m (Air humidity 2m)
datetime (Date and Time)

Results:

page: 1 / 17 , page size: , max results: 815

Ta_2m Huma_2m datetime
15.88 99.3 2004-10-03 18:00:00
15.52 99.7 2004-10-03 18:30:00
15.45 99.7 2004-10-03 19:00:00
15.26 99.7 2004-10-03 19:30:00
15.16 100.0 2004-10-03 20:00:00
15.07 100.0 2004-10-03 20:30:00
14.99 100.3 2004-10-03 21:00:00
14.97 100.7 2004-10-03 21:30:00
14.95 100.7 2004-10-03 22:00:00
14.92 100.7 2004-10-03 22:30:00
14.9 100.7 2004-10-03 23:00:00
14.83 100.7 2004-10-03 23:30:00
14.83 100.7 2004-10-04 00:00:00
14.83 101.0 2004-10-04 00:30:00
14.75 101.0 2004-10-04 01:00:00
14.75 101.0 2004-10-04 01:30:00
14.68 101.0 2004-10-04 02:00:00
14.61 101.3 2004-10-04 02:30:00
14.61 101.3 2004-10-04 03:00:00
14.54 101.0 2004-10-04 03:30:00
14.59 101.3 2004-10-04 04:00:00
14.52 101.3 2004-10-04 04:30:00
14.52 101.3 2004-10-04 05:00:00
14.47 101.3 2004-10-04 05:30:00
14.47 101.3 2004-10-04 06:00:00
14.47 101.3 2004-10-04 06:30:00
14.52 101.3 2004-10-04 07:00:00
14.8 101.3 2004-10-04 07:30:00
15.23 101.3 2004-10-04 08:00:00
15.83 100.3 2004-10-04 08:30:00
16.64 99.3 2004-10-04 09:00:00
17.16 93.1 2004-10-04 09:30:00
17.97 92.3 2004-10-04 10:00:00
17.64 93.1 2004-10-04 10:30:00
17.4 92.7 2004-10-04 11:00:00
18.78 85.5 2004-10-04 11:30:00
18.95 81.4 2004-10-04 12:00:00
20.23 73.8 2004-10-04 12:30:00
19.78 76.2 2004-10-04 13:00:00
18.99 82.8 2004-10-04 13:30:00
18.5 85.5 2004-10-04 14:00:00
18.76 80.0 2004-10-04 14:30:00
18.52 82.4 2004-10-04 15:00:00
18.16 83.3 2004-10-04 15:30:00
16.85 95.4 2004-10-04 16:00:00
16.28 97.6 2004-10-04 16:30:00
16.28 99.7 2004-10-04 17:00:00
15.93 99.3 2004-10-04 17:30:00
15.59 99.7 2004-10-04 18:00:00
15.45 100.0 2004-10-04 18:30:00

page: 1 / 17 , max results: 815


Return to the overview of this dataset or to the list of all FOR816 datasets.



Quick search

  • Publications:
  • Datasets: